Time;durP1;ratioP1;P1;durP2;ratioP2;P2;SDS_P1;SDS_P2;PMS_P1;PMS_P2;Temp;Humidity;BMP_temperature;BMP_pressure;BME280_temperature;BME280_humidity;BME280_pressure;Samples;Min_cycle;Max_cycle;Signal;HPM_P1;HPM_P2
2022/08/17 00:00:05;;;;;;;11.10;4.60;;;;;;;22.31;67.87;99866.44;18243657;32;20477;-56
2022/08/17 00:10:12;;;;;;;9.00;3.97;;;;;;;21.89;68.82;99873.31;18243443;32;20149;-56
2022/08/17 00:20:16;;;;;;;7.82;3.87;;;;;;;22.01;67.79;99877.06;18242978;32;20111;-55
2022/08/17 00:30:25;;;;;;;8.18;3.75;;;;;;;22.16;67.03;99885.94;18242708;32;20094;-55
2022/08/17 00:40:28;;;;;;;7.40;3.65;;;;;;;21.84;67.94;99881.56;18242644;32;20098;-55
2022/08/17 00:50:56;;;;;;;8.95;3.90;;;;;;;21.98;67.08;99887.88;18241694;32;20680;-55
2022/08/17 01:01:00;;;;;;;8.20;3.90;;;;;;;21.53;68.38;99885.06;18242288;32;20152;-55
2022/08/17 01:11:05;;;;;;;10.40;4.03;;;;;;;21.78;67.98;99889.03;18241715;32;20146;-55
2022/08/17 01:21:12;;;;;;;7.70;3.67;;;;;;;21.61;68.13;99889.03;18241335;32;20427;-55
2022/08/17 01:31:17;;;;;;;11.52;4.05;;;;;;;21.53;67.80;99893.03;18241119;32;20100;-55
2022/08/17 01:41:22;;;;;;;8.30;4.30;;;;;;;21.42;68.43;99894.50;18277868;32;20159;-56
2022/08/17 01:51:31;;;;;;;8.90;4.00;;;;;;;21.66;67.44;99895.84;18300450;32;20090;-55
2022/08/17 02:01:35;;;;;;;9.20;4.00;;;;;;;21.45;66.92;99901.44;18299638;32;20348;-56
2022/08/17 02:11:40;;;;;;;8.45;3.83;;;;;;;21.28;66.98;99903.22;18299784;32;20101;-56
2022/08/17 02:21:46;;;;;;;8.90;4.15;;;;;;;21.29;67.47;99896.97;18301546;32;20725;-56
2022/08/17 02:31:51;;;;;;;6.75;3.33;;;;;;;21.29;67.14;99906.75;18301308;32;20090;-56
2022/08/17 02:42:00;;;;;;;9.55;4.07;;;;;;;21.28;66.19;99891.78;18301212;32;20359;-56
2022/08/17 02:52:06;;;;;;;9.43;4.30;;;;;;;21.31;66.30;99899.56;18299845;32;20426;-56
2022/08/17 03:02:11;;;;;;;8.05;3.60;;;;;;;21.15;66.72;99894.25;18299516;32;20108;-56
2022/08/17 03:12:16;;;;;;;7.93;3.62;;;;;;;20.95;66.86;99908.56;18304968;32;20082;-56
2022/08/17 03:22:19;;;;;;;8.73;3.92;;;;;;;20.89;66.47;99907.97;18307794;32;20192;-56
2022/08/17 03:32:44;;;;;;;7.95;3.95;;;;;;;20.76;67.27;99909.50;18307772;32;20104;-56
2022/08/17 03:42:47;;;;;;;8.15;3.85;;;;;;;20.68;67.33;99917.87;18302385;32;148628;-56
2022/08/17 04:03:27;;;;;;;9.13;3.80;;;;;;;20.79;66.21;99930.59;18109355;32;20273;-56
2022/08/17 04:13:32;;;;;;;8.60;4.10;;;;;;;20.63;67.04;99936.69;18108257;32;20148;-56
2022/08/17 04:23:36;;;;;;;8.15;3.97;;;;;;;21.19;66.18;99939.09;18107267;32;20132;-56
2022/08/17 04:33:42;;;;;;;7.60;3.60;;;;;;;21.38;66.15;99946.06;18268461;32;20120;-56
2022/08/17 04:43:48;;;;;;;8.90;4.05;;;;;;;21.26;66.02;99960.03;18305497;32;20143;-56
2022/08/17 04:53:55;;;;;;;9.52;4.53;;;;;;;21.45;66.05;99954.53;18305791;32;20097;-56
2022/08/17 05:04:00;;;;;;;10.02;4.32;;;;;;;21.78;66.22;99956.31;18305213;32;20094;-56
2022/08/17 05:14:24;;;;;;;10.05;4.75;;;;;;;22.11;66.70;99965.09;18304840;32;20081;-56
2022/08/17 05:24:35;;;;;;;10.68;4.68;;;;;;;22.39;67.18;99974.12;18304393;32;20143;-56
2022/08/17 05:34:59;;;;;;;9.95;5.00;;;;;;;22.92;65.61;99979.88;18304423;32;20112;-56
2022/08/17 05:45:02;;;;;;;10.65;4.78;;;;;;;23.28;65.03;99985.72;18303357;32;20111;-56
2022/08/17 05:55:13;;;;;;;9.38;4.70;;;;;;;23.49;63.67;99977.34;18301128;32;20102;-56
2022/08/17 06:05:17;;;;;;;;;;;;;;;24.04;62.29;99988.06;18103980;32;20725;-56
2022/08/17 06:15:34;;;;;;;10.60;5.07;;;;;;;23.92;61.11;99984.38;18104288;32;20380;-56
2022/08/17 06:25:43;;;;;;;9.00;3.92;;;;;;;25.20;58.09;99984.78;18180571;32;20078;-56
2022/08/17 06:35:55;;;;;;;8.10;3.80;;;;;;;25.86;54.45;99983.72;18300259;32;20102;-56
2022/08/17 06:46:05;;;;;;;8.88;4.28;;;;;;;26.37;53.38;99979.09;18304028;32;20113;-56
2022/08/17 06:56:11;;;;;;;9.30;4.20;;;;;;;26.93;51.92;99985.59;18307739;32;20112;-57
2022/08/17 07:06:17;;;;;;;9.55;4.82;;;;;;;27.81;51.00;99992.03;18304368;32;20093;-57
2022/08/17 07:16:26;;;;;;;9.45;4.53;;;;;;;28.70;50.07;99987.44;18301171;32;20108;-56
2022/08/17 07:26:29;;;;;;;8.85;4.15;;;;;;;29.54;47.87;99977.53;18302207;32;20094;-57
2022/08/17 07:36:34;;;;;;;7.50;3.62;;;;;;;30.10;45.56;99977.94;18305007;32;20727;-56
2022/08/17 07:57:29;;;;;;;7.85;3.70;;;;;;;30.68;43.98;99970.00;18304388;32;20089;-56
2022/08/17 08:07:38;;;;;;;8.57;4.18;;;;;;;30.28;43.61;99971.84;18303964;32;20173;-57
2022/08/17 08:17:50;;;;;;;7.62;3.60;;;;;;;30.88;42.62;99981.59;18304651;32;20948;-56
2022/08/17 08:28:03;;;;;;;6.45;2.90;;;;;;;31.85;41.56;99977.75;18305150;32;20105;-57
2022/08/17 08:38:18;;;;;;;6.87;3.10;;;;;;;32.20;37.41;99976.91;18304597;32;20434;-57
2022/08/17 08:48:46;;;;;;;6.57;3.17;;;;;;;32.04;36.38;99974.06;18291338;32;20089;-57
2022/08/17 08:59:06;;;;;;;7.70;3.95;;;;;;;32.87;33.91;99969.31;18304833;32;20106;-56
2022/08/17 09:09:17;;;;;;;8.17;3.87;;;;;;;32.76;34.11;99955.06;18304294;32;20090;-57
2022/08/17 09:19:31;;;;;;;6.78;3.40;;;;;;;33.62;34.10;99952.44;18303313;32;20152;-57
2022/08/17 09:29:39;;;;;;;7.47;3.72;;;;;;;33.93;33.10;99945.56;18287910;32;20121;-57
2022/08/17 09:39:51;;;;;;;9.53;4.07;;;;;;;33.93;32.08;99955.53;18302383;32;20080;-57
2022/08/17 09:49:59;;;;;;;7.40;3.50;;;;;;;33.54;31.99;99947.00;18301589;32;20114;-57
2022/08/17 10:00:20;;;;;;;7.10;3.75;;;;;;;33.93;30.25;99933.88;18302442;32;20090;-57
2022/08/17 10:10:29;;;;;;;7.03;3.65;;;;;;;33.97;29.29;99919.03;18286408;32;20104;-57
2022/08/17 10:20:41;;;;;;;6.97;3.22;;;;;;;34.60;28.67;99924.75;18305206;32;20120;-57
2022/08/17 10:30:48;;;;;;;6.50;3.20;;;;;;;35.18;27.64;99929.19;18308792;32;20081;-57
2022/08/17 10:40:57;;;;;;;8.50;3.33;;;;;;;35.81;25.89;99915.63;18302928;32;20104;-57
2022/08/17 10:51:01;;;;;;;;;;;;;;;35.18;26.32;99911.03;18307234;32;20094;-57
2022/08/17 11:01:07;;;;;;;6.10;2.62;;;;;;;35.02;25.67;99909.22;18308498;32;20035;-57
2022/08/17 11:11:33;;;;;;;5.90;3.05;;;;;;;35.87;24.74;99900.47;18307773;32;20113;-57
2022/08/17 11:21:56;;;;;;;4.65;2.10;;;;;;;37.37;23.47;99895.13;18106459;32;20141;-56
2022/08/17 11:32:03;;;;;;;5.90;2.70;;;;;;;37.96;19.98;99890.53;18106539;32;20118;-57
2022/08/17 11:42:10;;;;;;;;;;;;;;;36.95;21.27;99872.22;18202797;32;20124;-57
2022/08/17 11:52:35;;;;;;;6.53;2.75;;;;;;;38.42;18.63;99866.56;18275854;32;20594;-57
2022/08/17 12:02:44;;;;;;;3.83;2.17;;;;;;;38.84;18.95;99859.25;18243432;32;20509;-57
2022/08/17 12:12:53;;;;;;;4.35;2.42;;;;;;;39.30;18.91;99859.66;18239416;32;20114;-57
2022/08/17 12:23:03;;;;;;;5.82;2.70;;;;;;;39.78;19.00;99849.66;18195988;32;20340;-57
2022/08/17 12:33:12;;;;;;;5.15;3.22;;;;;;;39.57;19.76;99834.28;18238549;32;20449;-57
2022/08/17 12:43:32;;;;;;;6.15;2.50;;;;;;;39.62;18.76;99829.88;18219915;32;20125;-57
2022/08/17 12:53:35;;;;;;;6.80;2.58;;;;;;;39.74;18.71;99832.84;18242538;32;20130;-57
2022/08/17 13:03:41;;;;;;;4.70;2.35;;;;;;;39.78;18.36;99825.91;18236006;32;20090;-57
2022/08/17 13:13:47;;;;;;;5.03;2.50;;;;;;;39.85;18.36;99814.12;18237908;32;20141;-57
2022/08/17 13:23:57;;;;;;;4.72;2.20;;;;;;;39.68;18.04;99826.31;18284557;32;20485;-57
2022/08/17 13:34:15;;;;;;;4.32;2.12;;;;;;;40.45;16.90;99802.28;18289887;32;20191;-57
2022/08/17 13:44:33;;;;;;;7.82;2.22;;;;;;;40.05;17.95;99804.03;18258406;32;20112;-57
2022/08/17 13:54:37;;;;;;;4.20;2.35;;;;;;;39.97;17.07;99797.97;18239411;32;20370;-57
2022/08/17 14:04:43;;;;;;;4.93;2.10;;;;;;;40.19;17.32;99796.66;18238425;32;20104;-58
2022/08/17 14:14:48;;;;;;;4.53;2.35;;;;;;;39.49;18.37;99797.13;18240456;32;20101;-57
2022/08/17 14:24:53;;;;;;;4.47;2.47;;;;;;;39.56;17.18;99789.78;18257003;32;20377;-58
2022/08/17 14:34:58;;;;;;;5.37;2.30;;;;;;;39.46;18.16;99801.13;18284905;32;20113;-57
2022/08/17 14:45:05;;;;;;;5.07;2.17;;;;;;;38.71;19.10;99796.50;18286387;32;20112;-56
2022/08/17 14:55:28;;;;;;;5.95;2.62;;;;;;;38.24;19.55;99794.34;18286925;32;20106;-57
2022/08/17 15:05:35;;;;;;;4.18;2.25;;;;;;;38.68;18.64;99799.59;18303092;32;20113;-57
2022/08/17 15:15:39;;;;;;;4.57;2.20;;;;;;;38.47;18.77;99789.66;18306694;32;20082;-57
2022/08/17 15:25:44;;;;;;;3.83;2.30;;;;;;;38.37;17.84;99795.44;18304622;32;20085;-57
2022/08/17 15:35:50;;;;;;;4.50;2.30;;;;;;;38.15;18.61;99801.81;18304924;32;20362;-57
2022/08/17 15:45:59;;;;;;;5.60;2.40;;;;;;;38.05;19.06;99800.53;18305235;32;20093;-57
2022/08/17 15:56:04;;;;;;;3.62;2.00;;;;;;;37.51;19.18;99791.88;18307006;32;20089;-57
2022/08/17 16:06:08;;;;;;;6.57;2.55;;;;;;;37.18;19.38;99806.84;18306752;32;20097;-57
2022/08/17 16:16:13;;;;;;;4.20;2.25;;;;;;;37.05;19.48;99802.09;18286898;32;20137;-57
2022/08/17 16:26:18;;;;;;;4.00;2.10;;;;;;;36.77;20.15;99800.06;18243066;32;20137;-57
2022/08/17 16:36:22;;;;;;;3.87;2.15;;;;;;;36.44;20.17;99792.31;18242716;32;20109;-57
2022/08/17 16:46:28;;;;;;;5.35;2.40;;;;;;;36.27;19.91;99800.66;18242387;32;20171;-57
2022/08/17 16:56:34;;;;;;;4.03;2.20;;;;;;;36.03;20.68;99788.13;18242435;32;20090;-57
2022/08/17 17:06:43;;;;;;;3.85;1.87;;;;;;;35.80;21.31;99798.03;18242046;32;20102;-57
2022/08/17 17:16:52;;;;;;;5.30;2.30;;;;;;;35.49;21.81;99812.50;18241936;32;20088;-57
2022/08/17 17:27:18;;;;;;;4.95;2.00;;;;;;;35.18;22.12;99818.81;18240925;32;20086;-57
2022/08/17 17:37:26;;;;;;;4.75;2.20;;;;;;;34.40;27.21;99819.44;18241769;32;20090;-57
2022/08/17 17:47:32;;;;;;;4.62;2.35;;;;;;;33.39;30.57;99841.28;18240777;32;20094;-57
2022/08/17 17:57:54;;;;;;;24.12;3.33;;;;;;;32.55;31.50;99843.84;18226420;32;20155;-57
2022/08/17 18:08:02;;;;;;;4.50;2.20;;;;;;;31.72;33.42;99845.91;18239690;32;20078;-57
2022/08/17 18:18:29;;;;;;;4.93;2.25;;;;;;;30.91;33.39;99851.09;18238827;32;20183;-57
2022/08/17 18:28:37;;;;;;;42.75;21.80;;;;;;;30.28;36.54;99861.50;18286270;32;20089;-57
2022/08/17 18:38:42;;;;;;;5.65;2.20;;;;;;;29.67;37.75;99863.50;18288606;32;20153;-57
2022/08/17 18:48:55;;;;;;;5.62;2.30;;;;;;;29.01;38.36;99876.50;18308736;32;20101;-57
2022/08/17 18:59:10;;;;;;;5.87;2.47;;;;;;;28.28;38.86;99885.44;18307449;32;20133;-57
2022/08/17 19:09:32;;;;;;;4.60;2.15;;;;;;;27.92;39.91;99893.75;18291278;32;20090;-56
2022/08/17 19:19:38;;;;;;;5.10;2.22;;;;;;;27.48;39.84;99899.94;18292293;32;20497;-56
2022/08/17 19:29:48;;;;;;;6.80;2.70;;;;;;;27.14;41.41;99894.66;18305782;32;20126;-56
2022/08/17 19:39:57;;;;;;;5.90;2.90;;;;;;;26.86;42.45;99918.25;18302738;32;20094;-56
2022/08/17 19:50:08;;;;;;;6.90;2.90;;;;;;;26.71;43.82;99923.81;18302030;32;20097;-58
2022/08/17 20:00:15;;;;;;;6.20;2.75;;;;;;;26.36;45.23;99929.25;18292811;32;20120;-56
2022/08/17 20:10:26;;;;;;;9.52;3.17;;;;;;;26.09;45.97;99924.97;18303598;32;20090;-57
2022/08/17 20:20:35;;;;;;;7.87;2.97;;;;;;;25.90;46.56;99924.56;18291081;32;20102;-57
2022/08/17 20:30:41;;;;;;;6.05;2.92;;;;;;;25.73;46.50;99928.44;18301394;32;20086;-56
2022/08/17 20:41:10;;;;;;;6.47;3.00;;;;;;;25.31;47.93;99931.44;18303339;32;20101;-56
2022/08/17 20:51:25;;;;;;;6.20;2.85;;;;;;;25.15;48.15;99925.50;18301825;32;20219;-56
2022/08/17 21:01:38;;;;;;;8.55;4.45;;;;;;;25.03;48.01;99921.88;18301175;32;20137;-57
2022/08/17 21:12:01;;;;;;;7.15;3.22;;;;;;;24.63;49.05;99923.69;18304059;32;20103;-57
2022/08/17 21:22:18;;;;;;;7.43;3.00;;;;;;;24.34;49.06;99923.00;18305103;32;20115;-56
2022/08/17 21:32:30;;;;;;;7.78;3.37;;;;;;;24.37;49.19;99930.78;18300234;32;20112;-57
2022/08/17 21:42:37;;;;;;;9.07;3.25;;;;;;;24.11;49.60;99941.41;18300269;32;20189;-57
2022/08/17 21:52:41;;;;;;;6.50;2.95;;;;;;;23.90;50.32;99939.19;18283613;32;20533;-57
2022/08/17 22:02:54;;;;;;;7.37;3.42;;;;;;;23.71;51.35;99950.19;18255255;32;20105;-56
2022/08/17 22:13:09;;;;;;;7.28;3.15;;;;;;;23.62;51.99;99946.31;18239403;32;20113;-56
2022/08/17 22:33:48;;;;;;;8.48;3.22;;;;;;;23.34;53.47;99980.03;18237919;32;20109;-56
2022/08/17 22:43:52;;;;;;;11.30;4.62;;;;;;;23.03;54.65;100008.50;18238608;32;20108;-56
2022/08/17 23:04:32;;;;;;;8.73;4.35;;;;;;;23.25;54.33;100033.81;18236767;32;20447;-56
2022/08/17 23:14:41;;;;;;;7.47;3.72;;;;;;;23.25;54.60;100039.16;18237436;32;20112;-56
2022/08/17 23:24:47;;;;;;;8.40;3.90;;;;;;;23.24;54.63;100056.91;18237580;32;20168;-56
2022/08/17 23:34:52;;;;;;;8.18;3.80;;;;;;;23.18;54.76;100069.75;18244857;32;20109;-56
2022/08/17 23:44:55;;;;;;;8.90;4.28;;;;;;;23.00;55.20;100051.28;18244294;32;20095;-56
2022/08/17 23:55:00;;;;;;;8.30;3.62;;;;;;;23.02;55.11;100043.22;18244139;32;20147;-56
